sensor_id;sensor_type;location;lat;lon;timestamp;pressure;altitude;pressure_sealevel;temperature;humidity
39823;BME280;25499;53.958;10.970;2022-10-16T06:25:01;100998.09;;;11.76;98.79
39823;BME280;25499;53.958;10.970;2022-10-16T06:27:27;101005.00;;;11.89;97.97
39823;BME280;25499;53.958;10.970;2022-10-16T06:29:52;101005.84;;;12.07;97.45
39823;BME280;25499;53.958;10.970;2022-10-16T06:32:17;101021.44;;;12.15;97.03
39823;BME280;25499;53.958;10.970;2022-10-16T06:37:14;101022.22;;;12.30;95.90
39823;BME280;25499;53.958;10.970;2022-10-16T06:39:41;101021.34;;;12.33;95.26
39823;BME280;25499;53.958;10.970;2022-10-16T06:42:08;101029.16;;;12.38;95.09
39823;BME280;25499;53.958;10.970;2022-10-16T06:44:45;101024.78;;;12.41;94.62
39823;BME280;25499;53.958;10.970;2022-10-16T06:47:19;101021.28;;;12.42;94.45
39823;BME280;25499;53.958;10.970;2022-10-16T06:49:51;101027.25;;;12.60;94.12
39823;BME280;25499;53.958;10.970;2022-10-16T07:06:04;101041.66;;;13.10;90.44
39823;BME280;25499;53.958;10.970;2022-10-16T07:08:35;101040.91;;;12.97;90.67
39823;BME280;25499;53.958;10.970;2022-10-16T07:14:27;101042.56;;;13.04;90.66
39823;BME280;25499;53.958;10.970;2022-10-16T07:16:55;101047.59;;;13.28;90.47
39823;BME280;25499;53.958;10.970;2022-10-16T07:19:20;101056.13;;;13.50;89.60
39823;BME280;25499;53.958;10.970;2022-10-16T07:25:08;101067.00;;;13.93;87.54
39823;BME280;25499;53.958;10.970;2022-10-16T07:27:35;101059.78;;;14.11;87.03
39823;BME280;25499;53.958;10.970;2022-10-16T07:33:41;101053.81;;;14.01;86.24
39823;BME280;25499;53.958;10.970;2022-10-16T07:36:15;101066.53;;;14.29;86.63
39823;BME280;25499;53.958;10.970;2022-10-16T07:41:44;101080.84;;;14.70;86.02
39823;BME280;25499;53.958;10.970;2022-10-16T07:44:15;101071.22;;;14.70;85.03
39823;BME280;25499;53.958;10.970;2022-10-16T07:46:44;101071.88;;;14.83;84.76
39823;BME280;25499;53.958;10.970;2022-10-16T07:49:11;101064.97;;;14.79;84.28
39823;BME280;25499;53.958;10.970;2022-10-16T07:51:36;101063.19;;;14.80;84.76
39823;BME280;25499;53.958;10.970;2022-10-16T07:54:03;101071.56;;;15.03;84.75
39823;BME280;25499;53.958;10.970;2022-10-16T07:56:31;101072.53;;;14.99;83.92
39823;BME280;25499;53.958;10.970;2022-10-16T07:58:57;101072.94;;;15.27;83.70
39823;BME280;25499;53.958;10.970;2022-10-16T08:01:24;101066.94;;;15.19;83.20
39823;BME280;25499;53.958;10.970;2022-10-16T08:03:50;101078.28;;;15.68;83.67
39823;BME280;25499;53.958;10.970;2022-10-16T08:06:18;101065.84;;;15.81;81.93
39823;BME280;25499;53.958;10.970;2022-10-16T08:08:44;101077.00;;;15.92;80.88
39823;BME280;25499;53.958;10.970;2022-10-16T08:11:09;101078.31;;;16.13;80.02
39823;BME280;25499;53.958;10.970;2022-10-16T08:13:35;101090.59;;;16.13;79.50
39823;BME280;25499;53.958;10.970;2022-10-16T08:16:00;101090.75;;;16.46;79.35
39823;BME280;25499;53.958;10.970;2022-10-16T08:18:27;101095.84;;;16.53;79.46
39823;BME280;25499;53.958;10.970;2022-10-16T08:20:57;101083.94;;;16.37;79.01
39823;BME280;25499;53.958;10.970;2022-10-16T08:23:23;101092.59;;;16.00;79.19
39823;BME280;25499;53.958;10.970;2022-10-16T08:25:51;101092.75;;;15.92;80.29
39823;BME280;25499;53.958;10.970;2022-10-16T08:28:16;101095.03;;;16.09;81.08
39823;BME280;25499;53.958;10.970;2022-10-16T08:30:42;101103.47;;;16.25;79.76
39823;BME280;25499;53.958;10.970;2022-10-16T08:33:07;101108.88;;;16.58;79.09
39823;BME280;25499;53.958;10.970;2022-10-16T08:35:33;101100.50;;;16.40;78.72
39823;BME280;25499;53.958;10.970;2022-10-16T08:37:58;101092.63;;;15.98;79.17
39823;BME280;25499;53.958;10.970;2022-10-16T08:40:26;101093.44;;;15.54;80.64
39823;BME280;25499;53.958;10.970;2022-10-16T08:48:52;101112.19;;;16.26;80.72
39823;BME280;25499;53.958;10.970;2022-10-16T08:51:24;101099.97;;;16.25;80.34
39823;BME280;25499;53.958;10.970;2022-10-16T08:54:51;101093.97;;;16.18;79.27
39823;BME280;25499;53.958;10.970;2022-10-16T08:56:45;101092.56;;;16.81;78.79
39823;BME280;25499;53.958;10.970;2022-10-16T08:59:11;101099.41;;;16.90;78.42
39823;BME280;25499;53.958;10.970;2022-10-16T09:01:41;101090.56;;;16.94;77.35
39823;BME280;25499;53.958;10.970;2022-10-16T09:07:40;101097.53;;;17.65;75.17
39823;BME280;25499;53.958;10.970;2022-10-16T09:15:36;101097.94;;;17.81;74.16
39823;BME280;25499;53.958;10.970;2022-10-16T09:18:12;101102.00;;;17.95;73.84
39823;BME280;25499;53.958;10.970;2022-10-16T09:21:15;101103.59;;;18.32;73.12
39823;BME280;25499;53.958;10.970;2022-10-16T09:23:43;101091.63;;;18.20;70.87
39823;BME280;25499;53.958;10.970;2022-10-16T09:26:12;101093.94;;;18.31;71.25
39823;BME280;25499;53.958;10.970;2022-10-16T09:28:38;101100.63;;;18.71;70.74
39823;BME280;25499;53.958;10.970;2022-10-16T09:31:03;101110.19;;;19.03;69.93
39823;BME280;25499;53.958;10.970;2022-10-16T09:33:33;101098.97;;;18.96;69.31
39823;BME280;25499;53.958;10.970;2022-10-16T09:36:03;101102.00;;;19.11;69.22
39823;BME280;25499;53.958;10.970;2022-10-16T09:38:32;101103.34;;;19.76;67.04
39823;BME280;25499;53.958;10.970;2022-10-16T09:41:00;101086.91;;;19.41;66.61
39823;BME280;25499;53.958;10.970;2022-10-16T09:43:47;101102.31;;;19.53;67.82
39823;BME280;25499;53.958;10.970;2022-10-16T09:46:35;101092.84;;;19.98;66.48
39823;BME280;25499;53.958;10.970;2022-10-16T09:49:03;101096.81;;;20.10;65.66
39823;BME280;25499;53.958;10.970;2022-10-16T09:51:32;101100.72;;;20.23;64.80
39823;BME280;25499;53.958;10.970;2022-10-16T09:54:02;101087.78;;;20.16;63.59
39823;BME280;25499;53.958;10.970;2022-10-16T09:56:33;101093.13;;;21.67;61.29
39823;BME280;25499;53.958;10.970;2022-10-16T09:59:28;101085.25;;;22.81;56.70
39823;BME280;25499;53.958;10.970;2022-10-16T10:01:56;101097.09;;;24.30;54.71
39823;BME280;25499;53.958;10.970;2022-10-16T10:04:24;101083.56;;;25.57;51.46
39823;BME280;25499;53.958;10.970;2022-10-16T10:06:57;101071.63;;;26.35;48.69
39823;BME280;25499;53.958;10.970;2022-10-16T10:09:28;101072.72;;;25.75;47.76
39823;BME280;25499;53.958;10.970;2022-10-16T10:12:00;101089.16;;;26.39;47.50
39823;BME280;25499;53.958;10.970;2022-10-16T10:14:37;101077.28;;;24.98;49.00
39823;BME280;25499;53.958;10.970;2022-10-16T10:19:54;101097.50;;;26.20;47.01
39823;BME280;25499;53.958;10.970;2022-10-16T10:22:43;101095.03;;;26.58;45.91
39823;BME280;25499;53.958;10.970;2022-10-16T10:33:45;101104.75;;;27.80;43.82
39823;BME280;25499;53.958;10.970;2022-10-16T10:44:19;101095.09;;;27.90;43.25
39823;BME280;25499;53.958;10.970;2022-10-16T10:49:58;101066.56;;;28.27;40.68
39823;BME280;25499;53.958;10.970;2022-10-16T10:55:33;101081.50;;;25.77;46.36
39823;BME280;25499;53.958;10.970;2022-10-16T10:58:20;101076.56;;;25.99;45.13
39823;BME280;25499;53.958;10.970;2022-10-16T11:09:03;101090.53;;;26.32;45.24
39823;BME280;25499;53.958;10.970;2022-10-16T11:12:32;101101.22;;;27.53;44.04
39823;BME280;25499;53.958;10.970;2022-10-16T11:14:36;101113.31;;;29.09;40.57
39823;BME280;25499;53.958;10.970;2022-10-16T11:17:11;101077.47;;;28.37;39.16
39823;BME280;25499;53.958;10.970;2022-10-16T11:19:54;101073.66;;;28.16;40.73
39823;BME280;25499;53.958;10.970;2022-10-16T11:22:50;101066.63;;;28.76;38.33
39823;BME280;25499;53.958;10.970;2022-10-16T11:27:47;101070.06;;;30.28;36.96
39823;BME280;25499;53.958;10.970;2022-10-16T11:30:19;101044.56;;;28.11;38.04
39823;BME280;25499;53.958;10.970;2022-10-16T11:35:44;101077.59;;;30.34;36.45
39823;BME280;25499;53.958;10.970;2022-10-16T11:41:03;101064.78;;;29.47;37.10
39823;BME280;25499;53.958;10.970;2022-10-16T11:43:39;101055.16;;;26.70;40.06
39823;BME280;25499;53.958;10.970;2022-10-16T11:46:13;101071.25;;;25.10;44.49
39823;BME280;25499;53.958;10.970;2022-10-16T11:54:14;101105.94;;;22.92;50.54
39823;BME280;25499;53.958;10.970;2022-10-16T11:56:44;101101.81;;;21.91;51.10
39823;BME280;25499;53.958;10.970;2022-10-16T11:59:26;101118.28;;;22.38;51.63
39823;BME280;25499;53.958;10.970;2022-10-16T12:04:49;101142.81;;;23.35;49.66
39823;BME280;25499;53.958;10.970;2022-10-16T12:07:19;101123.13;;;23.56;47.59
39823;BME280;25499;53.958;10.970;2022-10-16T12:09:48;101105.69;;;22.03;49.08
39823;BME280;25499;53.958;10.970;2022-10-16T12:12:46;101120.28;;;21.09;51.56
39823;BME280;25499;53.958;10.970;2022-10-16T12:15:26;101132.69;;;20.64;53.37
39823;BME280;25499;53.958;10.970;2022-10-16T12:17:52;101153.00;;;20.64;53.61
39823;BME280;25499;53.958;10.970;2022-10-16T12:23:05;101181.16;;;25.45;45.54
39823;BME280;25499;53.958;10.970;2022-10-16T12:25:33;101154.06;;;24.75;44.02
39823;BME280;25499;53.958;10.970;2022-10-16T12:28:02;101148.56;;;23.08;48.49
39823;BME280;25499;53.958;10.970;2022-10-16T12:30:31;101159.22;;;22.11;50.59
39823;BME280;25499;53.958;10.970;2022-10-16T12:33:00;101174.31;;;21.27;52.46
39823;BME280;25499;53.958;10.970;2022-10-16T12:35:30;101176.31;;;20.53;54.62
39823;BME280;25499;53.958;10.970;2022-10-16T12:38:17;101182.97;;;20.86;53.97
39823;BME280;25499;53.958;10.970;2022-10-16T12:40:44;101197.06;;;20.87;54.32
39823;BME280;25499;53.958;10.970;2022-10-16T12:43:41;101192.75;;;20.62;54.58
39823;BME280;25499;53.958;10.970;2022-10-16T12:48:36;101212.81;;;20.43;56.09
39823;BME280;25499;53.958;10.970;2022-10-16T12:51:33;101207.41;;;20.46;55.37
39823;BME280;25499;53.958;10.970;2022-10-16T12:54:11;101206.22;;;20.06;55.92
39823;BME280;25499;53.958;10.970;2022-10-16T12:56:50;101209.06;;;19.74;56.56
39823;BME280;25499;53.958;10.970;2022-10-16T13:07:39;101240.00;;;18.55;61.14
39823;BME280;25499;53.958;10.970;2022-10-16T13:10:39;101247.38;;;18.73;60.99
39823;BME280;25499;53.958;10.970;2022-10-16T13:18:15;101258.75;;;19.07;61.77
39823;BME280;25499;53.958;10.970;2022-10-16T13:21:02;101258.38;;;18.91;60.50
39823;BME280;25499;53.958;10.970;2022-10-16T13:23:43;101261.25;;;18.80;61.16
39823;BME280;25499;53.958;10.970;2022-10-16T13:28:42;101277.50;;;18.66;62.11
39823;BME280;25499;53.958;10.970;2022-10-16T13:31:22;101282.94;;;18.60;62.58
39823;BME280;25499;53.958;10.970;2022-10-16T13:33:51;101281.47;;;18.50;62.46
39823;BME280;25499;53.958;10.970;2022-10-16T13:36:25;101286.19;;;18.70;63.36
39823;BME280;25499;53.958;10.970;2022-10-16T13:39:13;101293.66;;;18.54;63.20
39823;BME280;25499;53.958;10.970;2022-10-16T13:41:39;101298.22;;;18.49;63.42
39823;BME280;25499;53.958;10.970;2022-10-16T13:44:17;101303.56;;;18.45;63.64
39823;BME280;25499;53.958;10.970;2022-10-16T13:46:44;101311.06;;;18.28;64.11
39823;BME280;25499;53.958;10.970;2022-10-16T13:49:15;101313.59;;;18.31;63.87
39823;BME280;25499;53.958;10.970;2022-10-16T13:51:41;101324.94;;;18.35;64.38
39823;BME280;25499;53.958;10.970;2022-10-16T13:54:18;101323.19;;;18.34;64.10
39823;BME280;25499;53.958;10.970;2022-10-16T13:56:43;101339.06;;;18.32;63.79
39823;BME280;25499;53.958;10.970;2022-10-16T13:59:35;101332.03;;;18.31;63.62
39823;BME280;25499;53.958;10.970;2022-10-16T14:02:08;101345.31;;;18.28;64.14
39823;BME280;25499;53.958;10.970;2022-10-16T14:04:40;101350.78;;;18.20;64.45
39823;BME280;25499;53.958;10.970;2022-10-16T14:07:25;101341.50;;;18.04;64.53
39823;BME280;25499;53.958;10.970;2022-10-16T14:09:52;101340.97;;;17.91;64.81
39823;BME280;25499;53.958;10.970;2022-10-16T14:12:18;101341.03;;;17.88;63.49
39823;BME280;25499;53.958;10.970;2022-10-16T14:14:47;101343.44;;;17.58;63.66
39823;BME280;25499;53.958;10.970;2022-10-16T14:17:15;101359.34;;;17.55;64.10
39823;BME280;25499;53.958;10.970;2022-10-16T14:19:46;101350.53;;;17.55;64.10
39823;BME280;25499;53.958;10.970;2022-10-16T14:22:40;101351.94;;;17.32;62.99
39823;BME280;25499;53.958;10.970;2022-10-16T14:30:26;101372.00;;;17.36;63.81
39823;BME280;25499;53.958;10.970;2022-10-16T14:32:58;101386.03;;;17.38;63.98
39823;BME280;25499;53.958;10.970;2022-10-16T14:35:36;101386.78;;;17.45;64.11
39823;BME280;25499;53.958;10.970;2022-10-16T14:38:03;101385.81;;;17.47;63.74
39823;BME280;25499;53.958;10.970;2022-10-16T14:40:32;101384.59;;;17.22;63.18
39823;BME280;25499;53.958;10.970;2022-10-16T14:42:59;101387.19;;;17.25;63.08
39823;BME280;25499;53.958;10.970;2022-10-16T14:45:31;101378.75;;;17.07;62.70
39823;BME280;25499;53.958;10.970;2022-10-16T14:48:00;101379.81;;;16.97;62.41
39823;BME280;25499;53.958;10.970;2022-10-16T14:50:26;101380.72;;;16.98;62.60
39823;BME280;25499;53.958;10.970;2022-10-16T14:52:52;101380.00;;;16.89;61.89
39823;BME280;25499;53.958;10.970;2022-10-16T14:55:18;101388.63;;;16.96;61.88
39823;BME280;25499;53.958;10.970;2022-10-16T14:57:44;101394.81;;;16.93;62.19
39823;BME280;25499;53.958;10.970;2022-10-16T15:00:28;101399.16;;;16.96;62.24
39823;BME280;25499;53.958;10.970;2022-10-16T15:02:53;101403.47;;;16.99;62.00
39823;BME280;25499;53.958;10.970;2022-10-16T15:05:20;101410.59;;;16.93;62.43
39823;BME280;25499;53.958;10.970;2022-10-16T15:07:47;101411.47;;;16.94;62.62
39823;BME280;25499;53.958;10.970;2022-10-16T15:10:14;101407.34;;;16.79;62.96
39823;BME280;25499;53.958;10.970;2022-10-16T15:12:40;101417.00;;;16.78;63.07
39823;BME280;25499;53.958;10.970;2022-10-16T15:15:41;101421.31;;;16.81;63.92
39823;BME280;25499;53.958;10.970;2022-10-16T15:18:07;101431.13;;;16.71;64.42
39823;BME280;25499;53.958;10.970;2022-10-16T15:20:35;101433.75;;;16.71;64.79
39823;BME280;25499;53.958;10.970;2022-10-16T15:23:03;101446.22;;;16.62;64.75
39823;BME280;25499;53.958;10.970;2022-10-16T15:25:32;101450.63;;;16.58;64.70
39823;BME280;25499;53.958;10.970;2022-10-16T15:28:02;101452.53;;;16.50;65.45
39823;BME280;25499;53.958;10.970;2022-10-16T15:30:28;101464.81;;;16.48;65.61
39823;BME280;25499;53.958;10.970;2022-10-16T15:32:53;101460.53;;;16.44;65.17
39823;BME280;25499;53.958;10.970;2022-10-16T15:35:19;101474.50;;;16.46;65.66
39823;BME280;25499;53.958;10.970;2022-10-16T15:37:46;101462.31;;;16.41;66.10
39823;BME280;25499;53.958;10.970;2022-10-16T15:40:12;101473.97;;;16.22;66.90
39823;BME280;25499;53.958;10.970;2022-10-16T15:42:37;101478.63;;;16.03;67.19
39823;BME280;25499;53.958;10.970;2022-10-16T15:45:03;101478.63;;;16.04;67.48
39823;BME280;25499;53.958;10.970;2022-10-16T15:47:30;101482.06;;;16.10;67.40
39823;BME280;25499;53.958;10.970;2022-10-16T15:49:55;101480.53;;;15.93;67.48
39823;BME280;25499;53.958;10.970;2022-10-16T15:52:20;101481.56;;;15.80;68.90
39823;BME280;25499;53.958;10.970;2022-10-16T15:54:46;101484.25;;;15.74;69.56
39823;BME280;25499;53.958;10.970;2022-10-16T15:57:11;101485.22;;;15.66;69.12
39823;BME280;25499;53.958;10.970;2022-10-16T15:59:37;101486.50;;;15.30;69.87
39823;BME280;25499;53.958;10.970;2022-10-16T16:02:02;101493.41;;;15.37;70.54
39823;BME280;25499;53.958;10.970;2022-10-16T16:04:29;101493.69;;;15.13;71.98
39823;BME280;25499;53.958;10.970;2022-10-16T16:06:55;101500.66;;;15.14;71.45
39823;BME280;25499;53.958;10.970;2022-10-16T16:09:20;101514.00;;;14.90;72.29
39823;BME280;25499;53.958;10.970;2022-10-16T16:11:45;101519.47;;;14.63;72.92
39823;BME280;25499;53.958;10.970;2022-10-16T16:14:12;101527.50;;;14.33;73.78
39823;BME280;25499;53.958;10.970;2022-10-16T16:16:38;101535.41;;;14.26;74.22
39823;BME280;25499;53.958;10.970;2022-10-16T16:19:04;101531.78;;;14.47;74.24
39823;BME280;25499;53.958;10.970;2022-10-16T16:21:31;101528.44;;;14.23;74.24
39823;BME280;25499;53.958;10.970;2022-10-16T16:23:57;101538.00;;;14.29;74.84
39823;BME280;25499;53.958;10.970;2022-10-16T16:26:25;101543.34;;;14.10;75.68
39823;BME280;25499;53.958;10.970;2022-10-16T16:28:51;101549.53;;;13.97;76.16
39823;BME280;25499;53.958;10.970;2022-10-16T16:31:16;101545.22;;;13.74;76.67
39823;BME280;25499;53.958;10.970;2022-10-16T16:33:42;101554.03;;;13.53;77.14
39823;BME280;25499;53.958;10.970;2022-10-16T16:36:07;101561.00;;;13.39;77.84
39823;BME280;25499;53.958;10.970;2022-10-16T16:38:33;101568.91;;;13.37;78.87
39823;BME280;25499;53.958;10.970;2022-10-16T16:40:59;101561.88;;;13.30;79.27
39823;BME280;25499;53.958;10.970;2022-10-16T16:43:25;101575.84;;;13.23;80.24
39823;BME280;25499;53.958;10.970;2022-10-16T16:45:51;101576.72;;;13.06;80.18
39823;BME280;25499;53.958;10.970;2022-10-16T16:48:17;101581.94;;;12.99;80.54
39823;BME280;25499;53.958;10.970;2022-10-16T16:50:42;101588.03;;;12.93;80.49
39823;BME280;25499;53.958;10.970;2022-10-16T16:53:08;101589.78;;;12.82;80.62
39823;BME280;25499;53.958;10.970;2022-10-16T16:55:34;101593.25;;;12.75;81.39
39823;BME280;25499;53.958;10.970;2022-10-16T16:57:59;101593.25;;;12.72;81.25
39823;BME280;25499;53.958;10.970;2022-10-16T17:00:25;101599.31;;;12.69;81.65
39823;BME280;25499;53.958;10.970;2022-10-16T17:02:50;101609.78;;;12.64;82.13
39823;BME280;25499;53.958;10.970;2022-10-16T17:05:17;101615.84;;;12.53;82.43
39823;BME280;25499;53.958;10.970;2022-10-16T17:07:43;101617.56;;;12.52;82.24
39823;BME280;25499;53.958;10.970;2022-10-16T17:10:08;101628.00;;;12.40;82.40
39823;BME280;25499;53.958;10.970;2022-10-16T17:12:34;101631.50;;;12.54;82.61
39823;BME280;25499;53.958;10.970;2022-10-16T17:14:59;101636.72;;;12.56;82.28
39823;BME280;25499;53.958;10.970;2022-10-16T17:17:25;101636.75;;;12.51;82.47
39823;BME280;25499;53.958;10.970;2022-10-16T17:19:51;101637.56;;;12.44;82.49
39823;BME280;25499;53.958;10.970;2022-10-16T17:22:18;101640.19;;;12.38;83.54
39823;BME280;25499;53.958;10.970;2022-10-16T17:24:43;101648.97;;;12.61;83.14
39823;BME280;25499;53.958;10.970;2022-10-16T17:27:09;101642.06;;;12.85;82.55
39823;BME280;25499;53.958;10.970;2022-10-16T17:29:36;101642.09;;;13.16;81.66
39823;BME280;25499;53.958;10.970;2022-10-16T17:32:01;101647.25;;;12.79;82.47
39823;BME280;25499;53.958;10.970;2022-10-16T17:34:26;101643.75;;;12.67;83.27
39823;BME280;25499;53.958;10.970;2022-10-16T17:36:52;101657.63;;;12.54;83.48
39823;BME280;25499;53.958;10.970;2022-10-16T17:39:18;101672.44;;;12.46;83.60
39823;BME280;25499;53.958;10.970;2022-10-16T17:41:44;101670.66;;;12.36;84.31
39823;BME280;25499;53.958;10.970;2022-10-16T17:44:11;101672.34;;;12.30;84.58
39823;BME280;25499;53.958;10.970;2022-10-16T17:46:44;101676.72;;;12.35;84.44
39823;BME280;25499;53.958;10.970;2022-10-16T17:49:09;101681.91;;;12.31;84.77
39823;BME280;25499;53.958;10.970;2022-10-16T17:51:35;101680.97;;;12.16;84.87
39823;BME280;25499;53.958;10.970;2022-10-16T17:54:01;101680.91;;;12.05;84.86
39823;BME280;25499;53.958;10.970;2022-10-16T17:56:28;101689.56;;;11.96;85.48
39823;BME280;25499;53.958;10.970;2022-10-16T17:58:57;101696.53;;;11.99;85.16
39823;BME280;25499;53.958;10.970;2022-10-16T18:01:34;101701.72;;;11.94;85.37
39823;BME280;25499;53.958;10.970;2022-10-16T18:04:09;101703.34;;;11.83;85.18
39823;BME280;25499;53.958;10.970;2022-10-16T18:06:39;101712.16;;;11.92;86.08
39823;BME280;25499;53.958;10.970;2022-10-16T18:09:08;101714.78;;;11.96;86.35
39823;BME280;25499;53.958;10.970;2022-10-16T18:11:35;101721.75;;;11.93;86.34
39823;BME280;25499;53.958;10.970;2022-10-16T18:14:02;101728.53;;;11.79;87.04
39823;BME280;25499;53.958;10.970;2022-10-16T18:16:29;101724.09;;;11.66;86.31
39823;BME280;25499;53.958;10.970;2022-10-16T18:18:55;101729.31;;;11.67;87.51
39823;BME280;25499;53.958;10.970;2022-10-16T18:21:21;101731.81;;;11.53;87.51
39823;BME280;25499;53.958;10.970;2022-10-16T18:23:47;101732.69;;;11.54;88.13
39823;BME280;25499;53.958;10.970;2022-10-16T18:26:14;101730.03;;;11.46;87.37
39823;BME280;25499;53.958;10.970;2022-10-16T18:28:40;101731.63;;;11.30;87.19
39823;BME280;25499;53.958;10.970;2022-10-16T18:31:08;101738.59;;;11.33;87.70
39823;BME280;25499;53.958;10.970;2022-10-16T18:33:35;101745.28;;;11.08;88.49
39823;BME280;25499;53.958;10.970;2022-10-16T18:36:03;101752.28;;;11.10;89.34
39823;BME280;25499;53.958;10.970;2022-10-16T18:38:29;101751.38;;;11.10;89.61
39823;BME280;25499;53.958;10.970;2022-10-16T18:40:55;101760.88;;;11.05;89.74
39823;BME280;25499;53.958;10.970;2022-10-16T18:43:20;101760.13;;;11.13;89.57
39823;BME280;25499;53.958;10.970;2022-10-16T18:46:23;101769.00;;;11.32;89.45
39823;BME280;25499;53.958;10.970;2022-10-16T18:49:12;101768.84;;;11.15;89.01
39823;BME280;25499;53.958;10.970;2022-10-16T18:51:39;101781.00;;;11.18;88.78
39823;BME280;25499;53.958;10.970;2022-10-16T18:54:09;101781.81;;;11.12;89.07
39823;BME280;25499;53.958;10.970;2022-10-16T18:56:35;101782.56;;;11.00;88.78
39823;BME280;25499;53.958;10.970;2022-10-16T18:59:03;101785.19;;;11.02;89.03
39823;BME280;25499;53.958;10.970;2022-10-16T19:01:31;101783.31;;;10.92;89.63
39823;BME280;25499;53.958;10.970;2022-10-16T19:03:59;101789.34;;;10.88;90.16
39823;BME280;25499;53.958;10.970;2022-10-16T19:06:26;101786.84;;;10.97;89.71
39823;BME280;25499;53.958;10.970;2022-10-16T19:08:55;101785.06;;;10.93;90.57
39823;BME280;25499;53.958;10.970;2022-10-16T19:11:23;101796.41;;;10.95;89.76
39823;BME280;25499;53.958;10.970;2022-10-16T19:13:49;101807.63;;;10.92;89.84
39823;BME280;25499;53.958;10.970;2022-10-16T19:16:18;101811.09;;;10.90;90.16
39823;BME280;25499;53.958;10.970;2022-10-16T19:18:44;101807.78;;;11.05;90.00
39823;BME280;25499;53.958;10.970;2022-10-16T19:21:11;101802.47;;;10.95;89.52
39823;BME280;25499;53.958;10.970;2022-10-16T19:23:38;101808.50;;;10.93;90.18
39823;BME280;25499;53.958;10.970;2022-10-16T19:26:06;101810.22;;;10.91;89.76
39823;BME280;25499;53.958;10.970;2022-10-16T19:28:31;101809.22;;;10.79;91.11
39823;BME280;25499;53.958;10.970;2022-10-16T19:31:02;101821.38;;;10.80;90.72
39823;BME280;25499;53.958;10.970;2022-10-16T19:33:28;101826.59;;;10.82;90.83
39823;BME280;25499;53.958;10.970;2022-10-16T19:35:53;101822.88;;;10.63;91.57
39823;BME280;25499;53.958;10.970;2022-10-16T19:38:19;101812.31;;;10.54;90.68
39823;BME280;25499;53.958;10.970;2022-10-16T19:40:44;101809.56;;;10.41;90.51
39823;BME280;25499;53.958;10.970;2022-10-16T19:43:10;101820.16;;;10.55;90.71
